sensor_id;sensor_type;location;lat;lon;timestamp;P1;durP1;ratioP1;P2;durP2;ratioP2
11328;SDS011;5719;42.714;23.732;2023-04-01T00:01:41;8.32;;;4.65;;
11328;SDS011;5719;42.714;23.732;2023-04-01T00:04:08;9.43;;;4.07;;
11328;SDS011;5719;42.714;23.732;2023-04-01T00:06:35;8.32;;;4.50;;
11328;SDS011;5719;42.714;23.732;2023-04-01T00:09:02;8.55;;;4.25;;
11328;SDS011;5719;42.714;23.732;2023-04-01T00:11:29;9.48;;;4.68;;
11328;SDS011;5719;42.714;23.732;2023-04-01T00:13:56;10.25;;;4.80;;
11328;SDS011;5719;42.714;23.732;2023-04-01T00:16:23;12.02;;;5.75;;
11328;SDS011;5719;42.714;23.732;2023-04-01T00:18:52;8.23;;;4.82;;
11328;SDS011;5719;42.714;23.732;2023-04-01T00:21:19;9.73;;;4.70;;
11328;SDS011;5719;42.714;23.732;2023-04-01T00:23:46;11.13;;;5.60;;
11328;SDS011;5719;42.714;23.732;2023-04-01T00:26:13;11.77;;;5.50;;
11328;SDS011;5719;42.714;23.732;2023-04-01T00:28:44;9.77;;;5.53;;
11328;SDS011;5719;42.714;23.732;2023-04-01T00:31:11;9.00;;;5.50;;
11328;SDS011;5719;42.714;23.732;2023-04-01T00:33:38;9.73;;;5.35;;
11328;SDS011;5719;42.714;23.732;2023-04-01T00:36:08;9.55;;;4.85;;
11328;SDS011;5719;42.714;23.732;2023-04-01T00:38:36;8.93;;;4.50;;
11328;SDS011;5719;42.714;23.732;2023-04-01T00:41:04;7.00;;;4.50;;
11328;SDS011;5719;42.714;23.732;2023-04-01T00:43:32;7.03;;;4.25;;
11328;SDS011;5719;42.714;23.732;2023-04-01T00:46:00;6.93;;;4.28;;
11328;SDS011;5719;42.714;23.732;2023-04-01T00:48:28;9.15;;;4.00;;
11328;SDS011;5719;42.714;23.732;2023-04-01T00:50:58;11.63;;;4.07;;
11328;SDS011;5719;42.714;23.732;2023-04-01T00:53:29;8.43;;;4.38;;
11328;SDS011;5719;42.714;23.732;2023-04-01T00:55:58;9.00;;;4.35;;
11328;SDS011;5719;42.714;23.732;2023-04-01T00:58:29;8.00;;;3.88;;
11328;SDS011;5719;42.714;23.732;2023-04-01T01:01:01;8.80;;;4.60;;
11328;SDS011;5719;42.714;23.732;2023-04-01T01:03:28;7.28;;;4.00;;
11328;SDS011;5719;42.714;23.732;2023-04-01T01:06:08;11.43;;;4.18;;
11328;SDS011;5719;42.714;23.732;2023-04-01T01:08:46;9.50;;;4.47;;
11328;SDS011;5719;42.714;23.732;2023-04-01T01:11:26;8.10;;;4.53;;
11328;SDS011;5719;42.714;23.732;2023-04-01T01:14:02;9.45;;;4.70;;
11328;SDS011;5719;42.714;23.732;2023-04-01T01:16:40;7.07;;;4.47;;
11328;SDS011;5719;42.714;23.732;2023-04-01T01:19:15;10.18;;;5.55;;
11328;SDS011;5719;42.714;23.732;2023-04-01T01:21:55;11.93;;;5.15;;
11328;SDS011;5719;42.714;23.732;2023-04-01T01:24:38;10.40;;;5.57;;
11328;SDS011;5719;42.714;23.732;2023-04-01T01:27:16;8.32;;;4.80;;
11328;SDS011;5719;42.714;23.732;2023-04-01T01:33:02;7.43;;;3.53;;
11328;SDS011;5719;42.714;23.732;2023-04-01T01:35:46;9.10;;;3.58;;
11328;SDS011;5719;42.714;23.732;2023-04-01T01:38:16;6.70;;;3.80;;
11328;SDS011;5719;42.714;23.732;2023-04-01T01:40:46;9.50;;;5.15;;
11328;SDS011;5719;42.714;23.732;2023-04-01T01:43:19;10.77;;;5.60;;
11328;SDS011;5719;42.714;23.732;2023-04-01T01:45:51;7.78;;;4.55;;
11328;SDS011;5719;42.714;23.732;2023-04-01T01:48:22;6.38;;;4.53;;
11328;SDS011;5719;42.714;23.732;2023-04-01T01:50:52;8.60;;;4.32;;
11328;SDS011;5719;42.714;23.732;2023-04-01T01:53:19;9.02;;;4.20;;
11328;SDS011;5719;42.714;23.732;2023-04-01T01:55:47;6.97;;;4.20;;
11328;SDS011;5719;42.714;23.732;2023-04-01T01:58:16;6.47;;;3.97;;
11328;SDS011;5719;42.714;23.732;2023-04-01T02:00:47;4.05;;;3.58;;
11328;SDS011;5719;42.714;23.732;2023-04-01T02:03:16;6.25;;;3.92;;
11328;SDS011;5719;42.714;23.732;2023-04-01T02:05:46;5.45;;;3.67;;
11328;SDS011;5719;42.714;23.732;2023-04-01T02:08:18;6.25;;;3.78;;
11328;SDS011;5719;42.714;23.732;2023-04-01T02:10:49;6.53;;;3.72;;
11328;SDS011;5719;42.714;23.732;2023-04-01T02:13:23;10.20;;;3.53;;
11328;SDS011;5719;42.714;23.732;2023-04-01T02:18:24;6.35;;;3.17;;
11328;SDS011;5719;42.714;23.732;2023-04-01T02:20:52;6.22;;;3.35;;
11328;SDS011;5719;42.714;23.732;2023-04-01T02:23:22;11.35;;;5.03;;
11328;SDS011;5719;42.714;23.732;2023-04-01T02:25:49;7.88;;;3.67;;
11328;SDS011;5719;42.714;23.732;2023-04-01T02:28:17;12.07;;;4.68;;
11328;SDS011;5719;42.714;23.732;2023-04-01T02:30:45;8.05;;;4.30;;
11328;SDS011;5719;42.714;23.732;2023-04-01T02:33:16;7.18;;;3.47;;
11328;SDS011;5719;42.714;23.732;2023-04-01T02:35:43;11.85;;;4.90;;
11328;SDS011;5719;42.714;23.732;2023-04-01T02:38:10;7.07;;;3.30;;
11328;SDS011;5719;42.714;23.732;2023-04-01T02:40:42;8.30;;;3.50;;
11328;SDS011;5719;42.714;23.732;2023-04-01T02:43:11;7.85;;;4.57;;
11328;SDS011;5719;42.714;23.732;2023-04-01T02:45:38;4.65;;;3.45;;
11328;SDS011;5719;42.714;23.732;2023-04-01T02:48:05;9.23;;;4.35;;
11328;SDS011;5719;42.714;23.732;2023-04-01T02:50:32;12.68;;;3.72;;
11328;SDS011;5719;42.714;23.732;2023-04-01T02:52:59;6.93;;;3.65;;
11328;SDS011;5719;42.714;23.732;2023-04-01T02:55:28;5.40;;;3.33;;
11328;SDS011;5719;42.714;23.732;2023-04-01T02:57:56;9.02;;;3.17;;
11328;SDS011;5719;42.714;23.732;2023-04-01T03:00:23;5.60;;;3.00;;
11328;SDS011;5719;42.714;23.732;2023-04-01T03:02:50;8.80;;;3.40;;
11328;SDS011;5719;42.714;23.732;2023-04-01T03:05:17;10.07;;;3.72;;
11328;SDS011;5719;42.714;23.732;2023-04-01T03:07:44;7.85;;;3.45;;
11328;SDS011;5719;42.714;23.732;2023-04-01T03:10:11;4.28;;;2.92;;
11328;SDS011;5719;42.714;23.732;2023-04-01T03:12:38;6.00;;;3.58;;
11328;SDS011;5719;42.714;23.732;2023-04-01T03:15:08;9.23;;;3.72;;
11328;SDS011;5719;42.714;23.732;2023-04-01T03:17:40;8.77;;;3.60;;
11328;SDS011;5719;42.714;23.732;2023-04-01T03:20:08;8.55;;;4.65;;
11328;SDS011;5719;42.714;23.732;2023-04-01T03:22:36;7.03;;;3.97;;
11328;SDS011;5719;42.714;23.732;2023-04-01T03:25:03;7.05;;;3.53;;
11328;SDS011;5719;42.714;23.732;2023-04-01T03:27:32;3.83;;;3.10;;
11328;SDS011;5719;42.714;23.732;2023-04-01T03:29:59;9.45;;;4.20;;
11328;SDS011;5719;42.714;23.732;2023-04-01T03:32:27;6.20;;;3.58;;
11328;SDS011;5719;42.714;23.732;2023-04-01T03:34:54;10.38;;;4.18;;
11328;SDS011;5719;42.714;23.732;2023-04-01T03:37:22;6.55;;;4.30;;
11328;SDS011;5719;42.714;23.732;2023-04-01T03:39:49;9.13;;;4.35;;
11328;SDS011;5719;42.714;23.732;2023-04-01T03:42:17;9.07;;;3.95;;
11328;SDS011;5719;42.714;23.732;2023-04-01T03:44:44;7.20;;;3.53;;
11328;SDS011;5719;42.714;23.732;2023-04-01T03:47:11;9.48;;;4.13;;
11328;SDS011;5719;42.714;23.732;2023-04-01T03:49:39;12.68;;;6.03;;
11328;SDS011;5719;42.714;23.732;2023-04-01T03:52:08;10.13;;;4.57;;
11328;SDS011;5719;42.714;23.732;2023-04-01T03:54:36;7.25;;;3.85;;
11328;SDS011;5719;42.714;23.732;2023-04-01T03:57:03;7.90;;;4.03;;
11328;SDS011;5719;42.714;23.732;2023-04-01T03:59:30;6.80;;;4.07;;
11328;SDS011;5719;42.714;23.732;2023-04-01T04:01:57;6.10;;;3.92;;
11328;SDS011;5719;42.714;23.732;2023-04-01T04:04:24;8.35;;;4.20;;
11328;SDS011;5719;42.714;23.732;2023-04-01T04:06:53;9.65;;;4.32;;
11328;SDS011;5719;42.714;23.732;2023-04-01T04:09:20;7.43;;;4.25;;
11328;SDS011;5719;42.714;23.732;2023-04-01T04:11:47;7.32;;;3.63;;
11328;SDS011;5719;42.714;23.732;2023-04-01T04:14:14;5.97;;;4.00;;
11328;SDS011;5719;42.714;23.732;2023-04-01T04:16:41;6.90;;;4.18;;
11328;SDS011;5719;42.714;23.732;2023-04-01T04:19:08;8.85;;;3.90;;
11328;SDS011;5719;42.714;23.732;2023-04-01T04:21:35;6.57;;;4.00;;
11328;SDS011;5719;42.714;23.732;2023-04-01T04:24:03;7.25;;;4.10;;
11328;SDS011;5719;42.714;23.732;2023-04-01T04:26:30;8.50;;;4.22;;
11328;SDS011;5719;42.714;23.732;2023-04-01T04:28:57;8.07;;;4.07;;
11328;SDS011;5719;42.714;23.732;2023-04-01T04:31:25;6.50;;;3.90;;
11328;SDS011;5719;42.714;23.732;2023-04-01T04:33:52;9.63;;;4.43;;
11328;SDS011;5719;42.714;23.732;2023-04-01T04:36:19;6.32;;;3.22;;
11328;SDS011;5719;42.714;23.732;2023-04-01T04:38:47;9.57;;;3.92;;
11328;SDS011;5719;42.714;23.732;2023-04-01T04:41:16;9.43;;;3.88;;
11328;SDS011;5719;42.714;23.732;2023-04-01T04:43:48;8.60;;;3.60;;
11328;SDS011;5719;42.714;23.732;2023-04-01T04:46:16;11.95;;;4.00;;
11328;SDS011;5719;42.714;23.732;2023-04-01T04:48:43;9.02;;;4.72;;
11328;SDS011;5719;42.714;23.732;2023-04-01T04:51:12;12.57;;;5.07;;
11328;SDS011;5719;42.714;23.732;2023-04-01T04:53:40;9.65;;;4.38;;
11328;SDS011;5719;42.714;23.732;2023-04-01T04:56:07;9.65;;;4.43;;
11328;SDS011;5719;42.714;23.732;2023-04-01T04:58:36;8.55;;;4.55;;
11328;SDS011;5719;42.714;23.732;2023-04-01T05:01:07;8.55;;;4.80;;
11328;SDS011;5719;42.714;23.732;2023-04-01T05:03:36;6.80;;;4.18;;
11328;SDS011;5719;42.714;23.732;2023-04-01T05:06:03;7.43;;;4.20;;
11328;SDS011;5719;42.714;23.732;2023-04-01T05:08:32;7.95;;;3.92;;
11328;SDS011;5719;42.714;23.732;2023-04-01T05:10:59;9.80;;;4.18;;
11328;SDS011;5719;42.714;23.732;2023-04-01T05:13:26;7.25;;;4.20;;
11328;SDS011;5719;42.714;23.732;2023-04-01T05:15:55;6.85;;;3.92;;
11328;SDS011;5719;42.714;23.732;2023-04-01T05:18:22;7.50;;;4.13;;
11328;SDS011;5719;42.714;23.732;2023-04-01T05:20:49;6.28;;;4.03;;
11328;SDS011;5719;42.714;23.732;2023-04-01T05:23:18;9.90;;;4.03;;
11328;SDS011;5719;42.714;23.732;2023-04-01T05:25:46;9.95;;;3.60;;
11328;SDS011;5719;42.714;23.732;2023-04-01T05:28:13;8.40;;;3.88;;
11328;SDS011;5719;42.714;23.732;2023-04-01T05:30:41;6.30;;;3.45;;
11328;SDS011;5719;42.714;23.732;2023-04-01T05:33:10;13.13;;;4.20;;
11328;SDS011;5719;42.714;23.732;2023-04-01T05:35:38;6.75;;;3.20;;
11328;SDS011;5719;42.714;23.732;2023-04-01T05:38:07;9.55;;;3.90;;
11328;SDS011;5719;42.714;23.732;2023-04-01T05:40:34;5.72;;;3.22;;
11328;SDS011;5719;42.714;23.732;2023-04-01T05:43:01;6.50;;;3.05;;
11328;SDS011;5719;42.714;23.732;2023-04-01T05:45:28;8.15;;;3.08;;
11328;SDS011;5719;42.714;23.732;2023-04-01T05:47:55;8.57;;;3.30;;
11328;SDS011;5719;42.714;23.732;2023-04-01T05:50:23;6.05;;;2.85;;
11328;SDS011;5719;42.714;23.732;2023-04-01T05:52:50;4.35;;;2.97;;
11328;SDS011;5719;42.714;23.732;2023-04-01T05:55:17;7.32;;;2.53;;
11328;SDS011;5719;42.714;23.732;2023-04-01T05:57:44;9.27;;;3.20;;
11328;SDS011;5719;42.714;23.732;2023-04-01T06:00:13;11.50;;;3.63;;
11328;SDS011;5719;42.714;23.732;2023-04-01T06:02:41;8.40;;;3.28;;
11328;SDS011;5719;42.714;23.732;2023-04-01T06:05:11;10.40;;;3.20;;
11328;SDS011;5719;42.714;23.732;2023-04-01T06:07:44;7.18;;;2.88;;
11328;SDS011;5719;42.714;23.732;2023-04-01T06:10:13;5.80;;;2.72;;
11328;SDS011;5719;42.714;23.732;2023-04-01T06:12:45;6.63;;;3.03;;
11328;SDS011;5719;42.714;23.732;2023-04-01T06:15:25;6.78;;;2.85;;
11328;SDS011;5719;42.714;23.732;2023-04-01T06:18:02;4.15;;;2.67;;
11328;SDS011;5719;42.714;23.732;2023-04-01T06:20:49;11.95;;;4.45;;
11328;SDS011;5719;42.714;23.732;2023-04-01T06:23:26;8.00;;;3.78;;
11328;SDS011;5719;42.714;23.732;2023-04-01T06:26:05;10.20;;;4.43;;
11328;SDS011;5719;42.714;23.732;2023-04-01T06:28:57;10.65;;;4.20;;
11328;SDS011;5719;42.714;23.732;2023-04-01T06:31:47;13.52;;;4.30;;
11328;SDS011;5719;42.714;23.732;2023-04-01T06:34:37;11.65;;;3.75;;
11328;SDS011;5719;42.714;23.732;2023-04-01T06:37:19;9.30;;;3.60;;
11328;SDS011;5719;42.714;23.732;2023-04-01T06:40:08;11.52;;;3.25;;
11328;SDS011;5719;42.714;23.732;2023-04-01T06:42:50;12.02;;;3.17;;
11328;SDS011;5719;42.714;23.732;2023-04-01T06:45:29;7.43;;;3.63;;
11328;SDS011;5719;42.714;23.732;2023-04-01T06:48:12;4.88;;;2.85;;
11328;SDS011;5719;42.714;23.732;2023-04-01T06:50:57;8.52;;;3.28;;
11328;SDS011;5719;42.714;23.732;2023-04-01T06:53:33;5.65;;;2.97;;
11328;SDS011;5719;42.714;23.732;2023-04-01T06:56:10;6.65;;;3.10;;
11328;SDS011;5719;42.714;23.732;2023-04-01T06:58:41;7.93;;;3.00;;
11328;SDS011;5719;42.714;23.732;2023-04-01T07:01:14;8.80;;;3.25;;
11328;SDS011;5719;42.714;23.732;2023-04-01T07:03:44;4.40;;;2.60;;
11328;SDS011;5719;42.714;23.732;2023-04-01T07:06:20;4.28;;;2.60;;
11328;SDS011;5719;42.714;23.732;2023-04-01T07:08:53;10.43;;;3.25;;
11328;SDS011;5719;42.714;23.732;2023-04-01T07:11:24;5.95;;;2.97;;
11328;SDS011;5719;42.714;23.732;2023-04-01T07:13:57;6.93;;;2.95;;
11328;SDS011;5719;42.714;23.732;2023-04-01T07:16:27;11.32;;;2.70;;
11328;SDS011;5719;42.714;23.732;2023-04-01T07:19:01;4.65;;;2.63;;
11328;SDS011;5719;42.714;23.732;2023-04-01T07:21:33;6.18;;;2.55;;
11328;SDS011;5719;42.714;23.732;2023-04-01T07:24:09;5.45;;;2.53;;
11328;SDS011;5719;42.714;23.732;2023-04-01T07:26:43;4.93;;;2.30;;
11328;SDS011;5719;42.714;23.732;2023-04-01T07:29:11;6.80;;;2.70;;
11328;SDS011;5719;42.714;23.732;2023-04-01T07:31:54;7.25;;;2.40;;
11328;SDS011;5719;42.714;23.732;2023-04-01T07:34:50;3.90;;;2.20;;
11328;SDS011;5719;42.714;23.732;2023-04-01T07:37:28;10.95;;;2.58;;
11328;SDS011;5719;42.714;23.732;2023-04-01T07:40:05;9.05;;;2.10;;
11328;SDS011;5719;42.714;23.732;2023-04-01T07:42:48;4.25;;;2.50;;
11328;SDS011;5719;42.714;23.732;2023-04-01T07:45:30;6.50;;;2.47;;
11328;SDS011;5719;42.714;23.732;2023-04-01T07:50:36;8.63;;;2.67;;
11328;SDS011;5719;42.714;23.732;2023-04-01T07:53:14;7.93;;;2.42;;
11328;SDS011;5719;42.714;23.732;2023-04-01T07:55:51;6.32;;;2.70;;
11328;SDS011;5719;42.714;23.732;2023-04-01T07:58:28;5.07;;;2.50;;
11328;SDS011;5719;42.714;23.732;2023-04-01T08:01:01;4.45;;;1.90;;
11328;SDS011;5719;42.714;23.732;2023-04-01T08:03:38;4.55;;;2.30;;
11328;SDS011;5719;42.714;23.732;2023-04-01T08:06:20;7.07;;;2.17;;
11328;SDS011;5719;42.714;23.732;2023-04-01T08:08:57;9.02;;;2.40;;
11328;SDS011;5719;42.714;23.732;2023-04-01T08:11:36;5.60;;;2.33;;
11328;SDS011;5719;42.714;23.732;2023-04-01T08:14:13;8.80;;;2.40;;
11328;SDS011;5719;42.714;23.732;2023-04-01T08:16:46;8.88;;;2.78;;
11328;SDS011;5719;42.714;23.732;2023-04-01T08:19:27;9.75;;;2.40;;
11328;SDS011;5719;42.714;23.732;2023-04-01T08:22:09;6.22;;;2.13;;
11328;SDS011;5719;42.714;23.732;2023-04-01T08:24:43;4.18;;;2.10;;
11328;SDS011;5719;42.714;23.732;2023-04-01T08:27:15;7.70;;;2.33;;
11328;SDS011;5719;42.714;23.732;2023-04-01T08:29:49;5.10;;;2.13;;
11328;SDS011;5719;42.714;23.732;2023-04-01T08:32:24;6.43;;;2.40;;
11328;SDS011;5719;42.714;23.732;2023-04-01T08:34:58;4.32;;;2.40;;
11328;SDS011;5719;42.714;23.732;2023-04-01T08:37:35;2.97;;;1.98;;
11328;SDS011;5719;42.714;23.732;2023-04-01T08:40:13;6.13;;;2.33;;
11328;SDS011;5719;42.714;23.732;2023-04-01T08:42:57;6.05;;;2.63;;
11328;SDS011;5719;42.714;23.732;2023-04-01T08:45:41;9.15;;;2.80;;
11328;SDS011;5719;42.714;23.732;2023-04-01T08:48:27;6.90;;;2.72;;
11328;SDS011;5719;42.714;23.732;2023-04-01T08:54:23;6.93;;;2.20;;
11328;SDS011;5719;42.714;23.732;2023-04-01T08:57:03;7.43;;;2.50;;
11328;SDS011;5719;42.714;23.732;2023-04-01T08:59:38;9.50;;;4.63;;
11328;SDS011;5719;42.714;23.732;2023-04-01T09:05:38;6.53;;;2.60;;
11328;SDS011;5719;42.714;23.732;2023-04-01T09:08:28;4.60;;;2.60;;
11328;SDS011;5719;42.714;23.732;2023-04-01T09:11:08;5.07;;;2.22;;
11328;SDS011;5719;42.714;23.732;2023-04-01T09:14:02;4.03;;;2.85;;
11328;SDS011;5719;42.714;23.732;2023-04-01T09:19:51;5.93;;;2.40;;
11328;SDS011;5719;42.714;23.732;2023-04-01T09:22:37;7.05;;;2.55;;
11328;SDS011;5719;42.714;23.732;2023-04-01T09:28:18;4.45;;;2.20;;
11328;SDS011;5719;42.714;23.732;2023-04-01T09:30:55;4.30;;;2.20;;
11328;SDS011;5719;42.714;23.732;2023-04-01T09:36:43;5.22;;;2.30;;
11328;SDS011;5719;42.714;23.732;2023-04-01T09:39:22;4.82;;;2.20;;
11328;SDS011;5719;42.714;23.732;2023-04-01T09:42:13;5.63;;;1.90;;
11328;SDS011;5719;42.714;23.732;2023-04-01T09:44:59;6.63;;;1.92;;
11328;SDS011;5719;42.714;23.732;2023-04-01T09:47:31;10.32;;;2.22;;
11328;SDS011;5719;42.714;23.732;2023-04-01T09:53:14;6.45;;;2.10;;
11328;SDS011;5719;42.714;23.732;2023-04-01T09:59:06;9.15;;;2.30;;
11328;SDS011;5719;42.714;23.732;2023-04-01T10:02:05;6.22;;;1.75;;
11328;SDS011;5719;42.714;23.732;2023-04-01T10:11:26;5.55;;;2.38;;
11328;SDS011;5719;42.714;23.732;2023-04-01T10:14:23;8.65;;;3.20;;
11328;SDS011;5719;42.714;23.732;2023-04-01T10:17:17;11.90;;;2.53;;
11328;SDS011;5719;42.714;23.732;2023-04-01T10:20:12;7.30;;;1.95;;
11328;SDS011;5719;42.714;23.732;2023-04-01T10:28:52;5.72;;;2.00;;
11328;SDS011;5719;42.714;23.732;2023-04-01T10:37:45;11.00;;;6.10;;
11328;SDS011;5719;42.714;23.732;2023-04-01T10:40:36;8.75;;;2.13;;
11328;SDS011;5719;42.714;23.732;2023-04-01T10:43:21;7.88;;;2.10;;
11328;SDS011;5719;42.714;23.732;2023-04-01T10:46:10;4.65;;;2.40;;
11328;SDS011;5719;42.714;23.732;2023-04-01T10:55:28;8.25;;;2.53;;
11328;SDS011;5719;42.714;23.732;2023-04-01T11:01:16;4.68;;;1.92;;
11328;SDS011;5719;42.714;23.732;2023-04-01T11:04:01;7.05;;;1.88;;
11328;SDS011;5719;42.714;23.732;2023-04-01T11:13:28;8.25;;;2.85;;
11328;SDS011;5719;42.714;23.732;2023-04-01T11:19:51;10.40;;;2.83;;
11328;SDS011;5719;42.714;23.732;2023-04-01T11:25:46;9.38;;;1.85;;
11328;SDS011;5719;42.714;23.732;2023-04-01T11:31:47;7.07;;;1.77;;
11328;SDS011;5719;42.714;23.732;2023-04-01T11:34:27;6.05;;;2.10;;
11328;SDS011;5719;42.714;23.732;2023-04-01T11:37:10;6.68;;;2.22;;
11328;SDS011;5719;42.714;23.732;2023-04-01T11:39:59;4.25;;;1.85;;
11328;SDS011;5719;42.714;23.732;2023-04-01T11:42:34;12.43;;;2.08;;
11328;SDS011;5719;42.714;23.732;2023-04-01T11:45:11;6.13;;;2.08;;
11328;SDS011;5719;42.714;23.732;2023-04-01T11:47:52;6.95;;;2.03;;
11328;SDS011;5719;42.714;23.732;2023-04-01T11:50:31;4.40;;;2.13;;
11328;SDS011;5719;42.714;23.732;2023-04-01T11:53:14;8.43;;;2.08;;
11328;SDS011;5719;42.714;23.732;2023-04-01T11:55:54;13.27;;;2.25;;
11328;SDS011;5719;42.714;23.732;2023-04-01T12:01:56;5.25;;;2.50;;
11328;SDS011;5719;42.714;23.732;2023-04-01T12:04:38;10.40;;;3.05;;
11328;SDS011;5719;42.714;23.732;2023-04-01T12:07:23;6.68;;;3.10;;
11328;SDS011;5719;42.714;23.732;2023-04-01T12:10:05;13.23;;;3.15;;
11328;SDS011;5719;42.714;23.732;2023-04-01T12:12:46;13.02;;;2.95;;
11328;SDS011;5719;42.714;23.732;2023-04-01T12:15:19;11.93;;;3.10;;
11328;SDS011;5719;42.714;23.732;2023-04-01T12:17:54;6.53;;;2.47;;
11328;SDS011;5719;42.714;23.732;2023-04-01T12:20:33;13.27;;;3.78;;
11328;SDS011;5719;42.714;23.732;2023-04-01T12:23:16;12.35;;;3.53;;
11328;SDS011;5719;42.714;23.732;2023-04-01T12:26:15;11.85;;;3.17;;
11328;SDS011;5719;42.714;23.732;2023-04-01T12:28:59;11.77;;;3.80;;
11328;SDS011;5719;42.714;23.732;2023-04-01T12:31:38;10.98;;;2.80;;
11328;SDS011;5719;42.714;23.732;2023-04-01T12:37:18;13.13;;;3.97;;
11328;SDS011;5719;42.714;23.732;2023-04-01T12:39:59;10.05;;;3.17;;
11328;SDS011;5719;42.714;23.732;2023-04-01T12:42:55;12.98;;;3.22;;
11328;SDS011;5719;42.714;23.732;2023-04-01T12:45:32;9.40;;;3.67;;
11328;SDS011;5719;42.714;23.732;2023-04-01T12:48:17;8.55;;;2.90;;
11328;SDS011;5719;42.714;23.732;2023-04-01T12:51:29;8.02;;;3.30;;
11328;SDS011;5719;42.714;23.732;2023-04-01T12:57:43;12.82;;;2.70;;
11328;SDS011;5719;42.714;23.732;2023-04-01T13:06:36;9.75;;;1.83;;
11328;SDS011;5719;42.714;23.732;2023-04-01T13:09:25;9.32;;;2.35;;
11328;SDS011;5719;42.714;23.732;2023-04-01T13:12:10;5.35;;;2.13;;
11328;SDS011;5719;42.714;23.732;2023-04-01T13:15:01;5.30;;;2.05;;
11328;SDS011;5719;42.714;23.732;2023-04-01T13:17:39;7.95;;;2.20;;
11328;SDS011;5719;42.714;23.732;2023-04-01T13:20:16;8.25;;;2.22;;
11328;SDS011;5719;42.714;23.732;2023-04-01T13:22:52;10.68;;;2.10;;
11328;SDS011;5719;42.714;23.732;2023-04-01T13:25:29;5.97;;;1.65;;
11328;SDS011;5719;42.714;23.732;2023-04-01T13:28:04;4.68;;;2.45;;
11328;SDS011;5719;42.714;23.732;2023-04-01T13:30:42;3.50;;;2.08;;
11328;SDS011;5719;42.714;23.732;2023-04-01T13:33:17;7.30;;;2.55;;
11328;SDS011;5719;42.714;23.732;2023-04-01T13:35:57;6.88;;;2.53;;
11328;SDS011;5719;42.714;23.732;2023-04-01T13:38:41;7.75;;;2.72;;
11328;SDS011;5719;42.714;23.732;2023-04-01T13:41:23;7.22;;;2.83;;
11328;SDS011;5719;42.714;23.732;2023-04-01T13:44:00;6.63;;;2.20;;
11328;SDS011;5719;42.714;23.732;2023-04-01T13:46:43;5.88;;;2.40;;
11328;SDS011;5719;42.714;23.732;2023-04-01T13:49:26;7.20;;;2.30;;
11328;SDS011;5719;42.714;23.732;2023-04-01T13:55:01;6.00;;;2.22;;
11328;SDS011;5719;42.714;23.732;2023-04-01T13:58:00;5.05;;;2.38;;
11328;SDS011;5719;42.714;23.732;2023-04-01T14:00:42;6.80;;;2.67;;
11328;SDS011;5719;42.714;23.732;2023-04-01T14:03:28;4.80;;;2.00;;
11328;SDS011;5719;42.714;23.732;2023-04-01T14:06:05;3.17;;;1.73;;
11328;SDS011;5719;42.714;23.732;2023-04-01T14:08:42;2.67;;;1.83;;
11328;SDS011;5719;42.714;23.732;2023-04-01T14:11:25;2.17;;;1.58;;
11328;SDS011;5719;42.714;23.732;2023-04-01T14:13:59;2.72;;;1.52;;
11328;SDS011;5719;42.714;23.732;2023-04-01T14:16:43;1.98;;;1.40;;
11328;SDS011;5719;42.714;23.732;2023-04-01T14:19:33;4.85;;;1.40;;
11328;SDS011;5719;42.714;23.732;2023-04-01T14:22:19;2.75;;;1.33;;
11328;SDS011;5719;42.714;23.732;2023-04-01T14:24:56;4.65;;;1.45;;
11328;SDS011;5719;42.714;23.732;2023-04-01T14:27:47;4.53;;;1.30;;
11328;SDS011;5719;42.714;23.732;2023-04-01T14:30:31;3.28;;;1.13;;
11328;SDS011;5719;42.714;23.732;2023-04-01T14:33:11;2.95;;;1.20;;
11328;SDS011;5719;42.714;23.732;2023-04-01T14:35:50;1.55;;;1.00;;
11328;SDS011;5719;42.714;23.732;2023-04-01T14:41:25;2.00;;;1.30;;
11328;SDS011;5719;42.714;23.732;2023-04-01T14:47:12;2.30;;;1.10;;
11328;SDS011;5719;42.714;23.732;2023-04-01T14:50:02;2.20;;;1.00;;
11328;SDS011;5719;42.714;23.732;2023-04-01T14:52:35;2.85;;;1.00;;
11328;SDS011;5719;42.714;23.732;2023-04-01T14:55:11;4.40;;;1.23;;
11328;SDS011;5719;42.714;23.732;2023-04-01T14:57:57;1.40;;;0.90;;
11328;SDS011;5719;42.714;23.732;2023-04-01T15:00:26;3.83;;;0.88;;
11328;SDS011;5719;42.714;23.732;2023-04-01T15:02:55;4.82;;;1.25;;
11328;SDS011;5719;42.714;23.732;2023-04-01T15:05:32;3.78;;;1.38;;
11328;SDS011;5719;42.714;23.732;2023-04-01T15:08:09;4.32;;;1.00;;
11328;SDS011;5719;42.714;23.732;2023-04-01T15:16:34;1.58;;;0.93;;
11328;SDS011;5719;42.714;23.732;2023-04-01T15:19:14;2.72;;;1.30;;
11328;SDS011;5719;42.714;23.732;2023-04-01T15:24:56;2.42;;;0.90;;
11328;SDS011;5719;42.714;23.732;2023-04-01T15:27:32;1.30;;;0.90;;
11328;SDS011;5719;42.714;23.732;2023-04-01T15:33:18;4.53;;;1.50;;
11328;SDS011;5719;42.714;23.732;2023-04-01T15:35:57;3.50;;;1.33;;
11328;SDS011;5719;42.714;23.732;2023-04-01T15:38:36;2.80;;;0.93;;
11328;SDS011;5719;42.714;23.732;2023-04-01T15:41:13;4.13;;;1.20;;
11328;SDS011;5719;42.714;23.732;2023-04-01T15:43:42;1.20;;;1.10;;
11328;SDS011;5719;42.714;23.732;2023-04-01T15:46:20;3.15;;;1.10;;
11328;SDS011;5719;42.714;23.732;2023-04-01T15:49:10;4.40;;;1.27;;
11328;SDS011;5719;42.714;23.732;2023-04-01T15:51:48;2.03;;;1.20;;
11328;SDS011;5719;42.714;23.732;2023-04-01T15:54:32;4.10;;;1.30;;
11328;SDS011;5719;42.714;23.732;2023-04-01T15:57:25;1.58;;;1.23;;
11328;SDS011;5719;42.714;23.732;2023-04-01T16:02:48;4.70;;;3.00;;
11328;SDS011;5719;42.714;23.732;2023-04-01T16:05:26;9.38;;;5.65;;
11328;SDS011;5719;42.714;23.732;2023-04-01T16:08:07;5.45;;;1.80;;
11328;SDS011;5719;42.714;23.732;2023-04-01T16:10:48;7.63;;;2.95;;
11328;SDS011;5719;42.714;23.732;2023-04-01T16:16:18;5.22;;;2.58;;
11328;SDS011;5719;42.714;23.732;2023-04-01T16:18:56;5.20;;;3.10;;
11328;SDS011;5719;42.714;23.732;2023-04-01T16:21:37;5.25;;;1.50;;
11328;SDS011;5719;42.714;23.732;2023-04-01T16:24:17;3.15;;;1.15;;
11328;SDS011;5719;42.714;23.732;2023-04-01T16:26:50;2.72;;;0.95;;
11328;SDS011;5719;42.714;23.732;2023-04-01T16:29:26;1.85;;;1.05;;
11328;SDS011;5719;42.714;23.732;2023-04-01T16:32:05;1.40;;;1.30;;
11328;SDS011;5719;42.714;23.732;2023-04-01T16:34:44;1.58;;;1.10;;
11328;SDS011;5719;42.714;23.732;2023-04-01T16:37:21;1.35;;;1.17;;
11328;SDS011;5719;42.714;23.732;2023-04-01T16:40:02;3.17;;;1.20;;
11328;SDS011;5719;42.714;23.732;2023-04-01T16:42:44;1.42;;;1.10;;
11328;SDS011;5719;42.714;23.732;2023-04-01T16:45:21;1.20;;;1.10;;
11328;SDS011;5719;42.714;23.732;2023-04-01T16:47:58;2.25;;;0.80;;
11328;SDS011;5719;42.714;23.732;2023-04-01T16:50:39;4.15;;;1.10;;
11328;SDS011;5719;42.714;23.732;2023-04-01T16:53:14;2.58;;;1.30;;
11328;SDS011;5719;42.714;23.732;2023-04-01T16:55:49;2.22;;;1.42;;
11328;SDS011;5719;42.714;23.732;2023-04-01T16:58:21;2.63;;;0.70;;
11328;SDS011;5719;42.714;23.732;2023-04-01T17:00:58;0.90;;;0.47;;
11328;SDS011;5719;42.714;23.732;2023-04-01T17:03:32;0.90;;;0.90;;
11328;SDS011;5719;42.714;23.732;2023-04-01T17:06:08;2.35;;;2.15;;
11328;SDS011;5719;42.714;23.732;2023-04-01T17:08:52;2.25;;;2.10;;
11328;SDS011;5719;42.714;23.732;2023-04-01T17:11:37;3.03;;;2.58;;
11328;SDS011;5719;42.714;23.732;2023-04-01T17:14:14;4.88;;;2.78;;
11328;SDS011;5719;42.714;23.732;2023-04-01T17:17:04;7.47;;;4.75;;
11328;SDS011;5719;42.714;23.732;2023-04-01T17:19:46;5.50;;;4.50;;
11328;SDS011;5719;42.714;23.732;2023-04-01T17:22:27;7.40;;;6.13;;
11328;SDS011;5719;42.714;23.732;2023-04-01T17:28:06;7.15;;;4.80;;
11328;SDS011;5719;42.714;23.732;2023-04-01T17:30:44;16.13;;;9.93;;
11328;SDS011;5719;42.714;23.732;2023-04-01T17:36:27;38.25;;;19.75;;
11328;SDS011;5719;42.714;23.732;2023-04-01T17:39:25;4.60;;;4.20;;
11328;SDS011;5719;42.714;23.732;2023-04-01T17:42:04;4.57;;;4.18;;